sensor_id;sensor_type;location;lat;lon;timestamp;noise_LAeq;noise_LA_min;noise_LA_max;noise_LA01;noise_LA95
43787;Laerm;29409;49.306;8.500;2022-11-27T00:00:33;41.64;36.69;50.18;;
43787;Laerm;29409;49.306;8.500;2022-11-27T00:02:11;40.66;37.32;43.44;;
43787;Laerm;29409;49.306;8.500;2022-11-27T00:03:49;40.89;37.32;43.58;;
43787;Laerm;29409;49.306;8.500;2022-11-27T00:05:27;40.78;37.52;45.39;;
43787;Laerm;29409;49.306;8.500;2022-11-27T00:07:05;41.60;37.88;47.93;;
43787;Laerm;29409;49.306;8.500;2022-11-27T00:08:43;42.03;38.81;46.05;;
43787;Laerm;29409;49.306;8.500;2022-11-27T00:10:22;41.20;38.05;45.99;;
43787;Laerm;29409;49.306;8.500;2022-11-27T00:12:00;41.57;37.70;49.33;;
43787;Laerm;29409;49.306;8.500;2022-11-27T00:13:38;39.76;35.94;43.94;;
43787;Laerm;29409;49.306;8.500;2022-11-27T00:15:16;39.52;36.20;49.69;;
43787;Laerm;29409;49.306;8.500;2022-11-27T00:16:55;40.46;35.36;45.57;;
43787;Laerm;29409;49.306;8.500;2022-11-27T00:18:34;40.21;36.91;44.11;;
43787;Laerm;29409;49.306;8.500;2022-11-27T00:20:12;39.96;37.32;42.88;;
43787;Laerm;29409;49.306;8.500;2022-11-27T00:21:50;40.72;36.69;46.35;;
43787;Laerm;29409;49.306;8.500;2022-11-27T00:23:28;39.73;36.20;42.16;;
43787;Laerm;29409;49.306;8.500;2022-11-27T00:25:07;43.60;37.32;54.25;;
43787;Laerm;29409;49.306;8.500;2022-11-27T00:26:45;41.21;36.45;63.03;;
43787;Laerm;29409;49.306;8.500;2022-11-27T00:28:23;41.11;36.91;45.91;;
43787;Laerm;29409;49.306;8.500;2022-11-27T00:30:03;41.71;37.52;50.28;;
43787;Laerm;29409;49.306;8.500;2022-11-27T00:31:41;39.95;35.94;46.05;;
43787;Laerm;29409;49.306;8.500;2022-11-27T00:33:19;40.00;35.59;44.23;;
43787;Laerm;29409;49.306;8.500;2022-11-27T00:34:57;40.05;35.36;46.73;;
43787;Laerm;29409;49.306;8.500;2022-11-27T00:36:35;40.04;35.94;47.54;;
43787;Laerm;29409;49.306;8.500;2022-11-27T00:38:13;39.39;35.36;41.82;;
43787;Laerm;29409;49.306;8.500;2022-11-27T00:39:52;41.31;37.12;48.37;;
43787;Laerm;29409;49.306;8.500;2022-11-27T00:41:30;40.05;36.45;44.47;;
43787;Laerm;29409;49.306;8.500;2022-11-27T00:43:10;41.05;37.32;48.42;;
43787;Laerm;29409;49.306;8.500;2022-11-27T00:44:47;40.27;37.12;48.37;;
43787;Laerm;29409;49.306;8.500;2022-11-27T00:46:26;39.50;36.20;45.69;;
43787;Laerm;29409;49.306;8.500;2022-11-27T00:48:05;39.10;35.66;41.53;;
43787;Laerm;29409;49.306;8.500;2022-11-27T00:49:43;39.22;35.66;43.39;;
43787;Laerm;29409;49.306;8.500;2022-11-27T00:51:21;39.60;35.66;45.91;;
43787;Laerm;29409;49.306;8.500;2022-11-27T00:53:01;40.17;36.69;43.34;;
43787;Laerm;29409;49.306;8.500;2022-11-27T00:54:38;40.35;36.69;44.39;;
43787;Laerm;29409;49.306;8.500;2022-11-27T00:56:24;39.66;36.20;48.81;;
43787;Laerm;29409;49.306;8.500;2022-11-27T00:58:02;40.37;36.69;43.86;;
43787;Laerm;29409;49.306;8.500;2022-11-27T00:59:40;39.35;35.36;42.59;;
43787;Laerm;29409;49.306;8.500;2022-11-27T01:01:19;40.04;36.45;50.39;;
43787;Laerm;29409;49.306;8.500;2022-11-27T01:02:57;41.21;35.94;53.64;;
43787;Laerm;29409;49.306;8.500;2022-11-27T01:04:35;40.70;37.32;47.13;;
43787;Laerm;29409;49.306;8.500;2022-11-27T01:06:14;39.83;36.91;43.68;;
43787;Laerm;29409;49.306;8.500;2022-11-27T01:07:51;40.15;36.91;43.72;;
43787;Laerm;29409;49.306;8.500;2022-11-27T01:09:30;41.21;37.12;51.42;;
43787;Laerm;29409;49.306;8.500;2022-11-27T01:11:15;40.15;36.20;45.36;;
43787;Laerm;29409;49.306;8.500;2022-11-27T01:12:53;39.31;35.94;44.51;;
43787;Laerm;29409;49.306;8.500;2022-11-27T01:14:33;39.69;35.36;42.98;;
43787;Laerm;29409;49.306;8.500;2022-11-27T01:16:12;39.50;35.66;42.71;;
43787;Laerm;29409;49.306;8.500;2022-11-27T01:17:51;39.93;36.45;45.45;;
43787;Laerm;29409;49.306;8.500;2022-11-27T01:19:29;38.88;35.36;41.81;;
43787;Laerm;29409;49.306;8.500;2022-11-27T01:21:07;39.56;36.45;43.63;;
43787;Laerm;29409;49.306;8.500;2022-11-27T01:22:46;40.80;36.20;45.01;;
43787;Laerm;29409;49.306;8.500;2022-11-27T01:24:25;39.51;36.69;41.82;;
43787;Laerm;29409;49.306;8.500;2022-11-27T01:26:04;39.28;35.66;41.68;;
43787;Laerm;29409;49.306;8.500;2022-11-27T01:27:42;39.02;35.66;47.20;;
43787;Laerm;29409;49.306;8.500;2022-11-27T01:29:21;39.14;35.86;42.35;;
43787;Laerm;29409;49.306;8.500;2022-11-27T01:31:02;39.53;36.45;43.14;;
43787;Laerm;29409;49.306;8.500;2022-11-27T01:32:41;40.61;35.94;44.43;;
43787;Laerm;29409;49.306;8.500;2022-11-27T01:34:19;40.58;37.12;44.76;;
43787;Laerm;29409;49.306;8.500;2022-11-27T01:35:58;40.18;36.20;43.39;;
43787;Laerm;29409;49.306;8.500;2022-11-27T01:37:36;40.03;36.91;43.04;;
43787;Laerm;29409;49.306;8.500;2022-11-27T01:39:16;39.56;36.45;42.03;;
43787;Laerm;29409;49.306;8.500;2022-11-27T01:40:58;39.49;35.01;43.44;;
43787;Laerm;29409;49.306;8.500;2022-11-27T01:42:36;39.73;35.36;44.69;;
43787;Laerm;29409;49.306;8.500;2022-11-27T01:46:01;41.90;37.12;55.94;;
43787;Laerm;29409;49.306;8.500;2022-11-27T01:47:44;39.94;36.45;48.16;;
43787;Laerm;29409;49.306;8.500;2022-11-27T01:49:34;40.32;37.32;42.71;;
43787;Laerm;29409;49.306;8.500;2022-11-27T01:51:13;39.94;36.91;42.88;;
43787;Laerm;29409;49.306;8.500;2022-11-27T01:52:52;39.59;36.20;47.12;;
43787;Laerm;29409;49.306;8.500;2022-11-27T01:56:15;39.59;35.66;46.02;;
43787;Laerm;29409;49.306;8.500;2022-11-27T01:58:00;39.19;35.36;42.35;;
43787;Laerm;29409;49.306;8.500;2022-11-27T01:59:41;39.69;36.45;43.49;;
43787;Laerm;29409;49.306;8.500;2022-11-27T02:01:19;39.29;35.04;43.68;;
43787;Laerm;29409;49.306;8.500;2022-11-27T02:02:57;39.02;35.94;41.96;;
43787;Laerm;29409;49.306;8.500;2022-11-27T02:04:35;39.94;35.94;48.25;;
43787;Laerm;29409;49.306;8.500;2022-11-27T02:06:13;39.30;35.36;44.83;;
43787;Laerm;29409;49.306;8.500;2022-11-27T02:07:51;42.35;36.69;54.43;;
43787;Laerm;29409;49.306;8.500;2022-11-27T02:09:29;39.78;36.20;44.11;;
43787;Laerm;29409;49.306;8.500;2022-11-27T02:12:57;39.76;35.94;46.80;;
43787;Laerm;29409;49.306;8.500;2022-11-27T02:17:09;39.29;35.94;41.82;;
43787;Laerm;29409;49.306;8.500;2022-11-27T02:18:42;40.17;36.91;42.98;;
43787;Laerm;29409;49.306;8.500;2022-11-27T02:22:26;39.16;36.20;41.68;;
43787;Laerm;29409;49.306;8.500;2022-11-27T02:24:16;39.68;36.20;43.81;;
43787;Laerm;29409;49.306;8.500;2022-11-27T02:29:30;38.93;34.69;41.38;;
43787;Laerm;29409;49.306;8.500;2022-11-27T02:31:14;39.88;36.45;48.12;;
43787;Laerm;29409;49.306;8.500;2022-11-27T02:32:56;39.14;35.36;41.53;;
43787;Laerm;29409;49.306;8.500;2022-11-27T02:36:26;38.93;35.59;41.46;;
43787;Laerm;29409;49.306;8.500;2022-11-27T02:38:11;38.93;36.20;41.89;;
43787;Laerm;29409;49.306;8.500;2022-11-27T02:41:56;41.23;35.94;54.87;;
43787;Laerm;29409;49.306;8.500;2022-11-27T02:43:41;39.09;35.66;41.75;;
43787;Laerm;29409;49.306;8.500;2022-11-27T02:45:32;39.14;35.36;41.75;;
43787;Laerm;29409;49.306;8.500;2022-11-27T02:47:12;38.99;34.31;45.48;;
43787;Laerm;29409;49.306;8.500;2022-11-27T02:48:52;39.45;34.69;42.53;;
43787;Laerm;29409;49.306;8.500;2022-11-27T02:50:32;40.15;35.36;48.73;;
43787;Laerm;29409;49.306;8.500;2022-11-27T02:52:12;39.50;35.94;42.09;;
43787;Laerm;29409;49.306;8.500;2022-11-27T02:53:56;39.53;35.04;44.35;;
43787;Laerm;29409;49.306;8.500;2022-11-27T02:55:35;39.80;36.20;46.48;;
43787;Laerm;29409;49.306;8.500;2022-11-27T02:57:14;39.04;35.94;43.29;;
43787;Laerm;29409;49.306;8.500;2022-11-27T02:58:54;39.07;35.66;42.59;;
43787;Laerm;29409;49.306;8.500;2022-11-27T03:00:32;39.02;35.04;41.96;;
43787;Laerm;29409;49.306;8.500;2022-11-27T03:02:16;38.78;35.66;41.46;;
43787;Laerm;29409;49.306;8.500;2022-11-27T03:03:56;38.84;35.04;41.38;;
43787;Laerm;29409;49.306;8.500;2022-11-27T03:05:37;38.73;35.36;41.14;;
43787;Laerm;29409;49.306;8.500;2022-11-27T03:07:21;38.91;35.94;41.75;;
43787;Laerm;29409;49.306;8.500;2022-11-27T03:09:07;39.58;34.31;45.11;;
43787;Laerm;29409;49.306;8.500;2022-11-27T03:12:42;38.97;34.69;46.25;;
43787;Laerm;29409;49.306;8.500;2022-11-27T03:14:20;38.87;34.69;51.40;;
43787;Laerm;29409;49.306;8.500;2022-11-27T03:19:29;38.75;34.69;40.98;;
43787;Laerm;29409;49.306;8.500;2022-11-27T03:21:16;38.91;35.36;41.38;;
43787;Laerm;29409;49.306;8.500;2022-11-27T03:22:57;38.72;35.66;41.22;;
43787;Laerm;29409;49.306;8.500;2022-11-27T03:24:36;38.74;35.66;41.14;;
43787;Laerm;29409;49.306;8.500;2022-11-27T03:26:15;38.62;35.04;40.89;;
43787;Laerm;29409;49.306;8.500;2022-11-27T03:27:58;39.50;34.69;43.77;;
43787;Laerm;29409;49.306;8.500;2022-11-27T03:29:47;39.30;35.36;42.22;;
43787;Laerm;29409;49.306;8.500;2022-11-27T03:31:26;38.61;35.04;41.38;;
43787;Laerm;29409;49.306;8.500;2022-11-27T03:33:06;38.77;34.69;41.46;;
43787;Laerm;29409;49.306;8.500;2022-11-27T03:34:44;39.60;35.66;43.44;;
43787;Laerm;29409;49.306;8.500;2022-11-27T03:36:22;41.05;36.45;44.07;;
43787;Laerm;29409;49.306;8.500;2022-11-27T03:38:02;39.19;35.59;41.96;;
43787;Laerm;29409;49.306;8.500;2022-11-27T03:39:39;38.80;34.69;41.46;;
43787;Laerm;29409;49.306;8.500;2022-11-27T03:43:20;38.71;34.69;41.22;;
43787;Laerm;29409;49.306;8.500;2022-11-27T03:45:09;39.24;35.36;47.95;;
43787;Laerm;29409;49.306;8.500;2022-11-27T03:48:54;38.67;35.66;41.22;;
43787;Laerm;29409;49.306;8.500;2022-11-27T03:50:45;40.36;34.69;44.31;;
43787;Laerm;29409;49.306;8.500;2022-11-27T03:58:21;39.15;35.66;42.53;;
43787;Laerm;29409;49.306;8.500;2022-11-27T04:00:01;39.17;35.94;42.03;;
43787;Laerm;29409;49.306;8.500;2022-11-27T04:01:40;41.19;36.91;45.69;;
43787;Laerm;29409;49.306;8.500;2022-11-27T04:03:26;39.80;36.45;42.41;;
43787;Laerm;29409;49.306;8.500;2022-11-27T04:05:04;38.82;35.04;41.38;;
43787;Laerm;29409;49.306;8.500;2022-11-27T04:06:43;38.66;34.69;41.75;;
43787;Laerm;29409;49.306;8.500;2022-11-27T04:08:22;39.18;35.36;53.68;;
43787;Laerm;29409;49.306;8.500;2022-11-27T04:10:01;39.10;35.04;42.76;;
43787;Laerm;29409;49.306;8.500;2022-11-27T04:11:40;38.71;34.31;41.06;;
43787;Laerm;29409;49.306;8.500;2022-11-27T04:13:18;38.78;35.36;41.14;;
43787;Laerm;29409;49.306;8.500;2022-11-27T04:14:56;41.10;35.66;55.80;;
43787;Laerm;29409;49.306;8.500;2022-11-27T04:16:35;39.43;35.66;49.23;;
43787;Laerm;29409;49.306;8.500;2022-11-27T04:18:13;38.61;34.69;41.30;;
43787;Laerm;29409;49.306;8.500;2022-11-27T04:19:51;38.56;33.90;42.53;;
43787;Laerm;29409;49.306;8.500;2022-11-27T04:21:30;38.75;35.36;47.79;;
43787;Laerm;29409;49.306;8.500;2022-11-27T04:23:09;38.90;35.36;41.30;;
43787;Laerm;29409;49.306;8.500;2022-11-27T04:24:47;39.02;34.69;49.16;;
43787;Laerm;29409;49.306;8.500;2022-11-27T04:26:25;39.07;35.36;42.35;;
43787;Laerm;29409;49.306;8.500;2022-11-27T04:28:03;39.08;35.66;42.22;;
43787;Laerm;29409;49.306;8.500;2022-11-27T04:29:40;41.34;37.32;45.07;;
43787;Laerm;29409;49.306;8.500;2022-11-27T04:31:18;40.00;36.20;45.45;;
43787;Laerm;29409;49.306;8.500;2022-11-27T04:32:56;38.88;35.36;41.14;;
43787;Laerm;29409;49.306;8.500;2022-11-27T04:34:35;40.70;34.69;45.80;;
43787;Laerm;29409;49.306;8.500;2022-11-27T04:36:13;39.22;36.20;41.68;;
43787;Laerm;29409;49.306;8.500;2022-11-27T04:37:50;40.30;36.20;44.90;;
43787;Laerm;29409;49.306;8.500;2022-11-27T04:39:28;40.53;35.66;61.79;;
43787;Laerm;29409;49.306;8.500;2022-11-27T04:41:07;40.67;36.20;45.63;;
43787;Laerm;29409;49.306;8.500;2022-11-27T04:42:45;38.82;35.66;41.14;;
43787;Laerm;29409;49.306;8.500;2022-11-27T04:44:23;39.05;35.66;41.68;;
43787;Laerm;29409;49.306;8.500;2022-11-27T04:46:01;38.95;35.04;43.68;;
43787;Laerm;29409;49.306;8.500;2022-11-27T04:47:38;39.04;35.36;41.61;;
43787;Laerm;29409;49.306;8.500;2022-11-27T04:49:17;38.80;35.31;42.93;;
43787;Laerm;29409;49.306;8.500;2022-11-27T04:50:55;38.75;35.66;41.22;;
43787;Laerm;29409;49.306;8.500;2022-11-27T04:52:34;38.95;35.36;41.82;;
43787;Laerm;29409;49.306;8.500;2022-11-27T04:54:14;39.38;35.66;46.10;;
43787;Laerm;29409;49.306;8.500;2022-11-27T04:55:53;39.68;35.86;44.98;;
43787;Laerm;29409;49.306;8.500;2022-11-27T04:57:31;39.18;35.36;42.59;;
43787;Laerm;29409;49.306;8.500;2022-11-27T04:59:09;39.64;35.66;43.33;;
43787;Laerm;29409;49.306;8.500;2022-11-27T05:00:47;39.77;36.20;42.59;;
43787;Laerm;29409;49.306;8.500;2022-11-27T05:02:25;40.47;36.20;43.63;;
43787;Laerm;29409;49.306;8.500;2022-11-27T05:04:03;40.42;36.91;47.86;;
43787;Laerm;29409;49.306;8.500;2022-11-27T05:05:41;40.71;38.05;47.02;;
43787;Laerm;29409;49.306;8.500;2022-11-27T05:07:19;40.89;38.32;42.71;;
43787;Laerm;29409;49.306;8.500;2022-11-27T05:08:57;44.71;37.70;62.40;;
43787;Laerm;29409;49.306;8.500;2022-11-27T05:10:38;44.83;36.20;64.48;;
43787;Laerm;29409;49.306;8.500;2022-11-27T05:12:18;40.56;36.91;47.28;;
43787;Laerm;29409;49.306;8.500;2022-11-27T05:13:56;39.81;36.56;46.89;;
43787;Laerm;29409;49.306;8.500;2022-11-27T05:15:52;39.64;36.34;42.16;;
43787;Laerm;29409;49.306;8.500;2022-11-27T05:17:30;39.77;35.66;42.35;;
43787;Laerm;29409;49.306;8.500;2022-11-27T05:19:09;41.80;36.20;53.25;;
43787;Laerm;29409;49.306;8.500;2022-11-27T05:20:47;39.76;36.20;42.09;;
43787;Laerm;29409;49.306;8.500;2022-11-27T05:22:32;40.89;36.91;44.80;;
43787;Laerm;29409;49.306;8.500;2022-11-27T05:24:10;41.49;37.52;45.77;;
43787;Laerm;29409;49.306;8.500;2022-11-27T05:25:48;41.60;37.70;47.14;;
43787;Laerm;29409;49.306;8.500;2022-11-27T05:27:25;40.58;36.91;43.49;;
43787;Laerm;29409;49.306;8.500;2022-11-27T05:29:03;40.70;36.69;46.52;;
43787;Laerm;29409;49.306;8.500;2022-11-27T05:30:42;40.00;36.45;45.11;;
43787;Laerm;29409;49.306;8.500;2022-11-27T05:32:20;39.37;36.20;41.96;;
43787;Laerm;29409;49.306;8.500;2022-11-27T05:33:58;39.08;35.66;41.30;;
43787;Laerm;29409;49.306;8.500;2022-11-27T05:35:36;40.07;36.20;42.41;;
43787;Laerm;29409;49.306;8.500;2022-11-27T05:37:15;40.17;36.45;42.29;;
43787;Laerm;29409;49.306;8.500;2022-11-27T05:38:53;39.95;36.91;45.83;;
43787;Laerm;29409;49.306;8.500;2022-11-27T05:40:30;39.71;36.20;43.29;;
43787;Laerm;29409;49.306;8.500;2022-11-27T05:42:09;41.02;37.70;43.94;;
43787;Laerm;29409;49.306;8.500;2022-11-27T05:43:48;41.38;37.12;43.99;;
43787;Laerm;29409;49.306;8.500;2022-11-27T05:45:26;40.43;36.45;48.61;;
43787;Laerm;29409;49.306;8.500;2022-11-27T05:47:04;39.89;35.86;44.76;;
43787;Laerm;29409;49.306;8.500;2022-11-27T05:48:42;39.46;35.94;42.13;;
43787;Laerm;29409;49.306;8.500;2022-11-27T05:50:20;40.21;36.20;46.71;;
43787;Laerm;29409;49.306;8.500;2022-11-27T05:51:57;43.16;36.45;58.21;;
43787;Laerm;29409;49.306;8.500;2022-11-27T05:53:35;39.49;36.20;42.47;;
43787;Laerm;29409;49.306;8.500;2022-11-27T05:55:13;39.33;35.94;41.68;;
43787;Laerm;29409;49.306;8.500;2022-11-27T05:56:51;40.47;36.69;44.35;;
43787;Laerm;29409;49.306;8.500;2022-11-27T05:58:29;41.00;37.12;44.54;;
43787;Laerm;29409;49.306;8.500;2022-11-27T06:00:07;39.73;36.69;42.76;;
43787;Laerm;29409;49.306;8.500;2022-11-27T06:01:46;40.78;37.52;54.25;;
43787;Laerm;29409;49.306;8.500;2022-11-27T06:03:25;39.87;36.91;43.94;;
43787;Laerm;29409;49.306;8.500;2022-11-27T06:05:04;41.71;37.88;54.92;;
43787;Laerm;29409;49.306;8.500;2022-11-27T06:06:42;40.37;37.12;44.80;;
43787;Laerm;29409;49.306;8.500;2022-11-27T06:08:20;40.24;36.91;43.44;;
43787;Laerm;29409;49.306;8.500;2022-11-27T06:09:58;40.01;36.91;46.25;;
43787;Laerm;29409;49.306;8.500;2022-11-27T06:11:37;40.66;37.12;43.29;;
43787;Laerm;29409;49.306;8.500;2022-11-27T06:13:15;39.69;36.45;42.03;;
43787;Laerm;29409;49.306;8.500;2022-11-27T06:14:52;40.09;36.20;43.09;;
43787;Laerm;29409;49.306;8.500;2022-11-27T06:16:30;42.01;35.66;55.11;;
43787;Laerm;29409;49.306;8.500;2022-11-27T06:18:09;41.41;36.69;59.54;;
43787;Laerm;29409;49.306;8.500;2022-11-27T06:19:47;39.99;36.20;43.68;;
43787;Laerm;29409;49.306;8.500;2022-11-27T06:21:26;39.82;36.69;43.99;;
43787;Laerm;29409;49.306;8.500;2022-11-27T06:23:04;40.16;36.91;50.35;;
43787;Laerm;29409;49.306;8.500;2022-11-27T06:24:41;39.55;36.20;42.82;;
43787;Laerm;29409;49.306;8.500;2022-11-27T06:26:27;39.70;36.69;42.22;;
43787;Laerm;29409;49.306;8.500;2022-11-27T06:28:06;41.67;36.45;49.46;;
43787;Laerm;29409;49.306;8.500;2022-11-27T06:29:44;40.52;37.12;44.07;;
43787;Laerm;29409;49.306;8.500;2022-11-27T06:31:27;40.23;36.69;44.27;;
43787;Laerm;29409;49.306;8.500;2022-11-27T06:33:06;41.12;37.12;47.67;;
43787;Laerm;29409;49.306;8.500;2022-11-27T06:34:44;43.57;37.12;56.29;;
43787;Laerm;29409;49.306;8.500;2022-11-27T06:36:23;40.27;36.20;43.37;;
43787;Laerm;29409;49.306;8.500;2022-11-27T06:38:01;40.78;37.12;45.60;;
43787;Laerm;29409;49.306;8.500;2022-11-27T06:39:41;40.84;37.32;45.99;;
43787;Laerm;29409;49.306;8.500;2022-11-27T06:41:20;39.92;36.20;47.76;;
43787;Laerm;29409;49.306;8.500;2022-11-27T06:42:58;41.54;37.88;45.36;;
43787;Laerm;29409;49.306;8.500;2022-11-27T06:44:36;41.14;37.12;44.27;;
43787;Laerm;29409;49.306;8.500;2022-11-27T06:46:15;40.26;37.12;43.09;;
43787;Laerm;29409;49.306;8.500;2022-11-27T06:47:54;40.03;37.12;43.81;;
43787;Laerm;29409;49.306;8.500;2022-11-27T06:49:32;41.82;37.12;51.40;;
43787;Laerm;29409;49.306;8.500;2022-11-27T06:51:11;43.20;37.12;56.79;;
43787;Laerm;29409;49.306;8.500;2022-11-27T06:52:49;42.14;38.60;45.63;;
43787;Laerm;29409;49.306;8.500;2022-11-27T06:54:27;42.09;37.32;45.54;;
43787;Laerm;29409;49.306;8.500;2022-11-27T06:56:08;40.21;37.12;42.35;;
43787;Laerm;29409;49.306;8.500;2022-11-27T06:57:48;42.12;37.12;55.11;;
43787;Laerm;29409;49.306;8.500;2022-11-27T06:59:26;40.30;36.91;52.83;;
43787;Laerm;29409;49.306;8.500;2022-11-27T07:01:05;48.68;37.12;67.26;;
43787;Laerm;29409;49.306;8.500;2022-11-27T07:02:43;40.79;37.12;44.03;;
43787;Laerm;29409;49.306;8.500;2022-11-27T07:04:21;40.09;37.52;47.79;;
43787;Laerm;29409;49.306;8.500;2022-11-27T07:06:00;39.99;36.69;43.58;;
43787;Laerm;29409;49.306;8.500;2022-11-27T07:07:40;40.91;37.35;61.62;;
43787;Laerm;29409;49.306;8.500;2022-11-27T07:09:17;40.54;37.12;50.27;;
43787;Laerm;29409;49.306;8.500;2022-11-27T07:11:02;40.43;37.32;43.39;;
43787;Laerm;29409;49.306;8.500;2022-11-27T07:12:40;40.58;37.12;45.51;;
43787;Laerm;29409;49.306;8.500;2022-11-27T07:14:18;47.35;37.88;65.33;;
43787;Laerm;29409;49.306;8.500;2022-11-27T07:15:59;40.21;37.12;47.28;;
43787;Laerm;29409;49.306;8.500;2022-11-27T07:17:38;56.80;37.70;71.74;;
43787;Laerm;29409;49.306;8.500;2022-11-27T07:19:16;43.37;39.81;49.62;;
43787;Laerm;29409;49.306;8.500;2022-11-27T07:20:54;41.83;38.05;46.55;;
43787;Laerm;29409;49.306;8.500;2022-11-27T07:22:33;41.10;37.32;50.43;;
43787;Laerm;29409;49.306;8.500;2022-11-27T07:24:11;41.87;38.21;49.24;;
43787;Laerm;29409;49.306;8.500;2022-11-27T07:25:49;41.84;38.52;56.11;;
43787;Laerm;29409;49.306;8.500;2022-11-27T07:27:27;41.06;37.88;43.58;;
43787;Laerm;29409;49.306;8.500;2022-11-27T07:29:05;40.97;37.32;43.72;;
43787;Laerm;29409;49.306;8.500;2022-11-27T07:30:43;40.72;37.70;48.34;;
43787;Laerm;29409;49.306;8.500;2022-11-27T07:32:23;40.89;37.88;51.80;;
43787;Laerm;29409;49.306;8.500;2022-11-27T07:34:01;42.08;37.52;46.73;;
43787;Laerm;29409;49.306;8.500;2022-11-27T07:35:39;42.38;39.34;54.92;;
43787;Laerm;29409;49.306;8.500;2022-11-27T07:37:17;43.71;39.81;50.93;;
43787;Laerm;29409;49.306;8.500;2022-11-27T07:38:55;41.20;38.21;49.62;;
43787;Laerm;29409;49.306;8.500;2022-11-27T07:40:36;40.70;38.05;45.86;;
43787;Laerm;29409;49.306;8.500;2022-11-27T07:42:15;41.56;38.52;45.17;;
43787;Laerm;29409;49.306;8.500;2022-11-27T07:43:53;41.98;38.37;46.50;;
43787;Laerm;29409;49.306;8.500;2022-11-27T07:45:30;41.22;38.21;44.23;;
43787;Laerm;29409;49.306;8.500;2022-11-27T07:47:08;48.57;37.88;72.83;;
43787;Laerm;29409;49.306;8.500;2022-11-27T07:48:46;45.53;42.09;51.53;;
43787;Laerm;29409;49.306;8.500;2022-11-27T07:50:24;43.30;38.52;50.36;;
43787;Laerm;29409;49.306;8.500;2022-11-27T07:52:02;40.73;38.52;42.53;;
43787;Laerm;29409;49.306;8.500;2022-11-27T07:53:40;41.62;38.37;47.28;;
43787;Laerm;29409;49.306;8.500;2022-11-27T07:55:18;41.66;38.52;45.80;;
43787;Laerm;29409;49.306;8.500;2022-11-27T07:56:56;42.34;39.46;49.69;;
43787;Laerm;29409;49.306;8.500;2022-11-27T07:58:36;41.04;38.67;49.18;;
43787;Laerm;29409;49.306;8.500;2022-11-27T08:00:14;44.26;38.47;58.66;;
43787;Laerm;29409;49.306;8.500;2022-11-27T08:01:53;42.67;38.67;55.64;;
43787;Laerm;29409;49.306;8.500;2022-11-27T08:03:32;41.81;38.37;51.13;;
43787;Laerm;29409;49.306;8.500;2022-11-27T08:05:10;41.27;38.05;44.83;;
43787;Laerm;29409;49.306;8.500;2022-11-27T08:06:48;42.47;37.88;50.88;;
43787;Laerm;29409;49.306;8.500;2022-11-27T08:08:26;42.25;38.81;49.45;;
43787;Laerm;29409;49.306;8.500;2022-11-27T08:10:04;43.21;38.67;56.18;;
43787;Laerm;29409;49.306;8.500;2022-11-27T08:11:43;44.98;38.81;61.10;;
43787;Laerm;29409;49.306;8.500;2022-11-27T08:13:20;42.31;38.95;48.03;;
43787;Laerm;29409;49.306;8.500;2022-11-27T08:14:59;45.06;38.95;57.86;;
43787;Laerm;29409;49.306;8.500;2022-11-27T08:16:37;42.30;38.81;54.02;;
43787;Laerm;29409;49.306;8.500;2022-11-27T08:18:15;42.32;38.81;46.97;;
43787;Laerm;29409;49.306;8.500;2022-11-27T08:19:53;41.84;38.95;47.24;;
43787;Laerm;29409;49.306;8.500;2022-11-27T08:21:31;42.21;39.08;45.27;;
43787;Laerm;29409;49.306;8.500;2022-11-27T08:23:10;41.94;38.21;48.54;;
43787;Laerm;29409;49.306;8.500;2022-11-27T08:24:48;41.58;38.05;53.07;;
43787;Laerm;29409;49.306;8.500;2022-11-27T08:26:27;41.81;39.21;46.18;;
43787;Laerm;29409;49.306;8.500;2022-11-27T08:28:05;43.13;39.34;48.98;;
43787;Laerm;29409;49.306;8.500;2022-11-27T08:29:43;42.99;39.58;46.40;;
43787;Laerm;29409;49.306;8.500;2022-11-27T08:31:21;43.51;40.53;51.08;;
43787;Laerm;29409;49.306;8.500;2022-11-27T08:33:00;43.59;39.68;49.39;;
43787;Laerm;29409;49.306;8.500;2022-11-27T08:34:38;43.42;40.33;49.90;;
43787;Laerm;29409;49.306;8.500;2022-11-27T08:36:16;43.23;40.03;49.83;;
43787;Laerm;29409;49.306;8.500;2022-11-27T08:37:54;43.22;40.43;48.36;;
43787;Laerm;29409;49.306;8.500;2022-11-27T08:39:32;46.75;40.27;59.24;;
43787;Laerm;29409;49.306;8.500;2022-11-27T08:41:10;43.17;39.21;50.60;;
43787;Laerm;29409;49.306;8.500;2022-11-27T08:42:47;44.75;40.43;54.78;;
43787;Laerm;29409;49.306;8.500;2022-11-27T08:44:25;44.38;40.89;51.61;;
43787;Laerm;29409;49.306;8.500;2022-11-27T08:46:04;43.54;40.36;47.08;;
43787;Laerm;29409;49.306;8.500;2022-11-27T08:47:42;42.86;39.81;47.35;;
43787;Laerm;29409;49.306;8.500;2022-11-27T08:49:20;45.48;40.13;59.88;;
43787;Laerm;29409;49.306;8.500;2022-11-27T08:50:58;46.87;40.62;62.98;;
43787;Laerm;29409;49.306;8.500;2022-11-27T08:52:36;44.06;41.30;47.84;;
43787;Laerm;29409;49.306;8.500;2022-11-27T08:54:15;44.26;41.89;48.83;;
43787;Laerm;29409;49.306;8.500;2022-11-27T08:55:53;44.45;41.89;53.16;;
43787;Laerm;29409;49.306;8.500;2022-11-27T08:57:31;43.97;41.82;49.66;;
43787;Laerm;29409;49.306;8.500;2022-11-27T08:59:09;45.50;41.68;59.14;;
43787;Laerm;29409;49.306;8.500;2022-11-27T09:00:47;45.64;39.46;59.59;;
43787;Laerm;29409;49.306;8.500;2022-11-27T09:02:24;42.31;39.58;46.89;;
43787;Laerm;29409;49.306;8.500;2022-11-27T09:04:04;44.35;39.21;56.90;;
43787;Laerm;29409;49.306;8.500;2022-11-27T09:05:42;42.02;39.58;50.39;;
43787;Laerm;29409;49.306;8.500;2022-11-27T09:07:21;48.54;40.03;63.65;;
43787;Laerm;29409;49.306;8.500;2022-11-27T09:09:00;42.94;39.46;51.35;;
43787;Laerm;29409;49.306;8.500;2022-11-27T09:10:38;43.84;40.03;60.99;;
43787;Laerm;29409;49.306;8.500;2022-11-27T09:12:17;44.37;40.71;62.93;;
43787;Laerm;29409;49.306;8.500;2022-11-27T09:13:57;47.10;40.98;60.50;;
43787;Laerm;29409;49.306;8.500;2022-11-27T09:15:35;42.38;38.52;49.18;;
43787;Laerm;29409;49.306;8.500;2022-11-27T09:17:13;43.33;39.08;49.15;;
43787;Laerm;29409;49.306;8.500;2022-11-27T09:18:51;42.41;39.68;47.91;;
43787;Laerm;29409;49.306;8.500;2022-11-27T09:20:29;42.51;39.58;47.24;;
43787;Laerm;29409;49.306;8.500;2022-11-27T09:22:07;44.42;39.92;61.77;;
43787;Laerm;29409;49.306;8.500;2022-11-27T09:23:46;43.50;39.08;57.11;;
43787;Laerm;29409;49.306;8.500;2022-11-27T09:25:24;42.45;39.21;52.04;;
43787;Laerm;29409;49.306;8.500;2022-11-27T09:27:01;41.54;38.52;45.72;;
43787;Laerm;29409;49.306;8.500;2022-11-27T09:28:43;43.53;38.95;53.82;;
43787;Laerm;29409;49.306;8.500;2022-11-27T09:30:24;40.69;37.52;48.28;;
43787;Laerm;29409;49.306;8.500;2022-11-27T09:32:02;42.35;38.67;51.23;;
43787;Laerm;29409;49.306;8.500;2022-11-27T09:33:41;41.28;38.37;48.61;;
43787;Laerm;29409;49.306;8.500;2022-11-27T09:35:19;45.07;39.08;60.25;;
43787;Laerm;29409;49.306;8.500;2022-11-27T09:36:57;41.54;37.70;45.42;;
43787;Laerm;29409;49.306;8.500;2022-11-27T09:38:35;43.95;39.21;56.66;;
43787;Laerm;29409;49.306;8.500;2022-11-27T09:40:14;42.14;39.21;48.00;;
43787;Laerm;29409;49.306;8.500;2022-11-27T09:41:55;42.88;37.88;51.91;;
43787;Laerm;29409;49.306;8.500;2022-11-27T09:43:40;41.98;38.95;49.93;;
43787;Laerm;29409;49.306;8.500;2022-11-27T09:45:19;43.42;38.95;51.49;;
43787;Laerm;29409;49.306;8.500;2022-11-27T09:47:04;41.77;37.70;51.28;;